createdAt,value
2023-05-20T00:00:11.160Z,22.71
2023-05-20T00:01:13.534Z,22.72
2023-05-20T00:02:16.257Z,22.71
2023-05-20T00:03:20.278Z,22.69
2023-05-20T00:04:22.324Z,22.69
2023-05-20T00:05:24.238Z,22.67
2023-05-20T00:06:26.132Z,22.66
2023-05-20T00:07:28.061Z,22.65
2023-05-20T00:08:30.056Z,22.63
2023-05-20T00:09:31.898Z,22.63
2023-05-20T00:10:33.694Z,22.62
2023-05-20T00:11:35.562Z,22.61
2023-05-20T00:12:39.058Z,22.60
2023-05-20T00:13:41.066Z,22.61
2023-05-20T00:14:42.948Z,22.60
2023-05-20T00:15:44.790Z,22.55
2023-05-20T00:16:47.056Z,22.58
2023-05-20T00:17:48.981Z,22.57
2023-05-20T00:18:51.157Z,22.57
2023-05-20T00:19:53.065Z,22.56
2023-05-20T00:20:55.257Z,22.55
2023-05-20T00:21:58.074Z,22.51
2023-05-20T00:23:00.175Z,22.56
2023-05-20T00:24:02.038Z,22.54
2023-05-20T00:25:04.098Z,22.53
2023-05-20T00:26:06.089Z,22.53
2023-05-20T00:27:07.956Z,22.48
2023-05-20T00:28:09.787Z,22.48
2023-05-20T00:29:11.587Z,22.49
2023-05-20T00:30:14.033Z,22.49
2023-05-20T00:31:15.915Z,22.48
2023-05-20T00:32:17.842Z,22.48
2023-05-20T00:33:19.783Z,22.48
2023-05-20T00:34:21.876Z,22.48
2023-05-20T00:35:23.745Z,22.46
2023-05-20T00:36:25.719Z,22.46
2023-05-20T00:37:28.126Z,22.44
2023-05-20T00:38:30.214Z,22.44
2023-05-20T00:39:32.075Z,22.44
2023-05-20T00:40:33.905Z,22.41
2023-05-20T00:41:36.168Z,22.43
2023-05-20T00:42:38.020Z,22.38
2023-05-20T00:43:39.863Z,22.41
2023-05-20T00:44:41.943Z,22.41
2023-05-20T00:45:43.927Z,22.38
2023-05-20T00:46:48.208Z,22.40
2023-05-20T00:47:50.100Z,22.41
2023-05-20T00:48:52.714Z,22.37
2023-05-20T00:49:54.700Z,22.26
2023-05-20T00:50:56.660Z,22.39
2023-05-20T00:51:59.047Z,22.38
2023-05-20T00:53:00.987Z,22.37
2023-05-20T00:54:03.344Z,22.37
2023-05-20T00:55:05.589Z,22.37
2023-05-20T00:56:08.898Z,22.34
2023-05-20T00:57:11.975Z,22.35
2023-05-20T00:58:14.234Z,22.33
2023-05-20T00:59:16.632Z,22.34
2023-05-20T01:00:18.520Z,22.33
2023-05-20T01:01:20.462Z,22.33
2023-05-20T01:02:23.103Z,22.26
2023-05-20T01:03:25.800Z,22.32
2023-05-20T01:04:28.233Z,22.13
2023-05-20T01:05:30.138Z,22.30
2023-05-20T01:06:33.747Z,22.29
2023-05-20T01:07:35.971Z,22.29
2023-05-20T01:08:37.825Z,22.29
2023-05-20T01:09:39.736Z,22.23
2023-05-20T01:10:46.829Z,22.28
2023-05-20T01:11:53.047Z,22.27
2023-05-20T01:12:58.333Z,22.23
2023-05-20T01:14:07.601Z,22.27
2023-05-20T01:15:12.052Z,22.28
2023-05-20T01:16:18.616Z,22.27
2023-05-20T01:17:21.183Z,22.27
2023-05-20T01:18:25.679Z,22.24
2023-05-20T01:19:35.623Z,22.24
2023-05-20T01:20:39.455Z,22.26
2023-05-20T01:21:43.461Z,22.25
2023-05-20T01:22:49.937Z,22.24
2023-05-20T01:23:51.828Z,22.24
2023-05-20T01:24:53.706Z,22.22
2023-05-20T01:25:56.102Z,22.21
2023-05-20T01:26:58.282Z,22.20
2023-05-20T01:28:00.246Z,22.19
2023-05-20T01:29:04.878Z,22.18
2023-05-20T01:30:07.762Z,22.20
2023-05-20T01:31:19.486Z,22.19
2023-05-20T01:32:26.355Z,22.20
2023-05-20T01:33:30.215Z,22.20
2023-05-20T01:34:33.904Z,22.19
2023-05-20T01:35:36.830Z,22.18
2023-05-20T01:36:40.771Z,22.18
2023-05-20T01:37:43.991Z,22.15
2023-05-20T01:38:46.413Z,22.15
2023-05-20T01:39:51.251Z,22.14
2023-05-20T01:40:55.220Z,22.15
2023-05-20T01:41:57.820Z,22.15
2023-05-20T01:43:01.510Z,22.14
2023-05-20T01:44:03.894Z,22.13
2023-05-20T01:45:06.443Z,22.13
2023-05-20T01:46:08.341Z,22.13
2023-05-20T01:47:10.203Z,22.12
2023-05-20T01:48:12.761Z,22.11
2023-05-20T01:49:16.124Z,22.12
2023-05-20T01:50:19.888Z,22.11
2023-05-20T01:51:22.455Z,22.11
2023-05-20T01:52:24.415Z,22.10
2023-05-20T01:53:26.328Z,22.09
2023-05-20T01:54:28.158Z,22.10
2023-05-20T01:55:30.113Z,22.09
2023-05-20T01:56:32.031Z,22.08
2023-05-20T01:57:34.647Z,22.08
2023-05-20T01:58:36.703Z,22.08
2023-05-20T01:59:39.709Z,22.07
2023-05-20T02:00:41.989Z,22.07
2023-05-20T02:01:44.019Z,22.06
2023-05-20T02:02:46.057Z,22.06
2023-05-20T02:03:48.476Z,22.05
2023-05-20T02:04:51.666Z,22.04
2023-05-20T02:05:53.575Z,21.84
2023-05-20T02:06:57.901Z,22.05
2023-05-20T02:07:59.758Z,22.05
2023-05-20T02:09:02.497Z,22.04
2023-05-20T02:10:04.967Z,22.02
2023-05-20T02:11:06.834Z,21.95
2023-05-20T02:12:10.158Z,22.02
2023-05-20T02:13:12.812Z,22.03
2023-05-20T02:14:15.548Z,22.03
2023-05-20T02:15:17.529Z,22.03
2023-05-20T02:16:19.601Z,22.01
2023-05-20T02:17:21.621Z,22.00
2023-05-20T02:18:23.495Z,22.01
2023-05-20T02:19:25.491Z,22.00
2023-05-20T02:20:27.406Z,21.99
2023-05-20T02:21:29.229Z,21.99
2023-05-20T02:22:31.252Z,21.89
2023-05-20T02:23:33.134Z,21.98
2023-05-20T02:24:34.973Z,21.98
2023-05-20T02:25:36.869Z,21.98
2023-05-20T02:26:38.714Z,21.97
2023-05-20T02:27:40.862Z,21.97
2023-05-20T02:28:46.720Z,21.97
2023-05-20T02:29:49.005Z,21.97
2023-05-20T02:30:53.913Z,21.96
2023-05-20T02:31:55.722Z,21.96
2023-05-20T02:32:58.088Z,21.96
2023-05-20T02:34:00.254Z,21.96
2023-05-20T02:35:03.480Z,21.95
2023-05-20T02:36:05.905Z,21.93
2023-05-20T02:37:07.820Z,21.93
2023-05-20T02:38:11.311Z,21.93
2023-05-20T02:39:13.280Z,21.93
2023-05-20T02:40:15.208Z,21.93
2023-05-20T02:41:17.198Z,21.92
2023-05-20T02:42:19.541Z,21.92
2023-05-20T02:43:21.392Z,21.91
2023-05-20T02:44:23.459Z,21.91
2023-05-20T02:45:25.536Z,21.91
2023-05-20T02:46:27.444Z,21.86
2023-05-20T02:47:29.478Z,21.90
2023-05-20T02:48:31.390Z,21.91
2023-05-20T02:49:33.846Z,21.89
2023-05-20T02:50:41.117Z,21.89
2023-05-20T02:51:42.994Z,21.91
2023-05-20T02:52:45.696Z,21.90
2023-05-20T02:53:48.126Z,21.89
2023-05-20T02:54:50.409Z,21.89
2023-05-20T02:55:52.380Z,21.89
2023-05-20T02:56:54.211Z,21.89
2023-05-20T02:57:56.324Z,21.88
2023-05-20T02:58:59.165Z,21.88
2023-05-20T03:00:01.157Z,21.89
2023-05-20T03:01:03.602Z,21.87
2023-05-20T03:02:05.792Z,21.88
2023-05-20T03:03:08.256Z,21.88
2023-05-20T03:04:10.195Z,21.88
2023-05-20T03:05:12.582Z,21.84
2023-05-20T03:06:14.591Z,21.88
2023-05-20T03:07:19.783Z,21.87
2023-05-20T03:08:23.154Z,21.87
2023-05-20T03:09:25.494Z,21.85
2023-05-20T03:10:27.341Z,21.88
2023-05-20T03:11:29.273Z,21.87
2023-05-20T03:12:31.389Z,21.86
2023-05-20T03:13:33.249Z,21.87
2023-05-20T03:14:35.363Z,21.87
2023-05-20T03:15:38.375Z,21.86
2023-05-20T03:16:40.553Z,21.86
2023-05-20T03:17:42.486Z,21.86
2023-05-20T03:18:44.469Z,21.88
2023-05-20T03:19:46.469Z,21.81
2023-05-20T03:20:49.280Z,21.88
2023-05-20T03:21:51.463Z,21.86
2023-05-20T03:22:53.353Z,21.88
2023-05-20T03:23:55.296Z,21.68
2023-05-20T03:24:57.230Z,21.88
2023-05-20T03:25:59.107Z,21.88
2023-05-20T03:27:01.097Z,21.88
2023-05-20T03:28:03.030Z,21.89
2023-05-20T03:29:05.714Z,21.88
2023-05-20T03:30:08.421Z,21.89
2023-05-20T03:31:10.373Z,21.89
2023-05-20T03:32:12.253Z,21.88
2023-05-20T03:33:15.980Z,21.89
2023-05-20T03:34:17.825Z,21.90
2023-05-20T03:35:21.064Z,21.90
2023-05-20T03:36:23.547Z,21.89
2023-05-20T03:37:25.427Z,21.92
2023-05-20T03:38:27.728Z,21.89
2023-05-20T03:39:29.713Z,21.91
2023-05-20T03:40:31.668Z,21.92
2023-05-20T03:41:33.813Z,21.92
2023-05-20T03:42:36.432Z,21.92
2023-05-20T03:43:38.636Z,21.93
2023-05-20T03:44:41.203Z,21.89
2023-05-20T03:45:43.105Z,21.93
2023-05-20T03:46:45.079Z,21.93
2023-05-20T03:47:48.445Z,21.89
2023-05-20T03:48:52.269Z,21.97
2023-05-20T03:49:55.372Z,21.95
2023-05-20T03:50:57.310Z,21.97
2023-05-20T03:51:59.281Z,21.99
2023-05-20T03:53:01.475Z,21.98
2023-05-20T03:54:09.016Z,21.83
2023-05-20T03:55:10.906Z,22.00
2023-05-20T03:56:12.893Z,22.01
2023-05-20T03:57:16.155Z,22.01
2023-05-20T03:58:18.076Z,22.02
2023-05-20T03:59:20.181Z,22.02
2023-05-20T04:00:22.934Z,22.03
2023-05-20T04:01:25.979Z,22.01
2023-05-20T04:02:28.583Z,22.03
2023-05-20T04:03:31.562Z,22.04
2023-05-20T04:04:33.505Z,22.04
2023-05-20T04:05:36.985Z,22.01
2023-05-20T04:06:42.362Z,22.07
2023-05-20T04:07:44.350Z,22.06
2023-05-20T04:08:48.321Z,22.08
2023-05-20T04:09:50.306Z,22.07
2023-05-20T04:10:56.536Z,22.07
2023-05-20T04:11:58.497Z,22.10
2023-05-20T04:13:00.856Z,22.10
2023-05-20T04:14:03.025Z,22.10
2023-05-20T04:15:05.951Z,22.11
2023-05-20T04:16:15.351Z,22.14
2023-05-20T04:17:17.295Z,22.15
2023-05-20T04:18:19.506Z,22.15
2023-05-20T04:19:21.620Z,22.15
2023-05-20T04:20:24.624Z,22.17
2023-05-20T04:21:29.953Z,22.18
2023-05-20T04:22:31.832Z,22.18
2023-05-20T04:23:33.894Z,22.19
2023-05-20T04:24:35.850Z,22.20
2023-05-20T04:25:37.834Z,22.20
2023-05-20T04:26:39.982Z,22.20
2023-05-20T04:27:41.888Z,22.22
2023-05-20T04:28:43.828Z,22.23
2023-05-20T04:29:47.450Z,22.22
2023-05-20T04:30:50.245Z,22.23
2023-05-20T04:31:52.322Z,22.25
2023-05-20T04:32:54.750Z,22.26
2023-05-20T04:33:57.766Z,22.26
2023-05-20T04:35:02.137Z,22.20
2023-05-20T04:36:07.943Z,22.26
2023-05-20T04:37:10.352Z,22.30
2023-05-20T04:38:13.381Z,22.31
2023-05-20T04:39:15.711Z,22.31
2023-05-20T04:40:17.644Z,22.30
2023-05-20T04:41:19.630Z,22.31
2023-05-20T04:42:22.314Z,22.31
2023-05-20T04:43:26.035Z,22.32
2023-05-20T04:44:28.356Z,22.33
2023-05-20T04:45:30.238Z,22.33
2023-05-20T04:46:32.358Z,22.33
2023-05-20T04:47:38.734Z,22.34
2023-05-20T04:48:40.999Z,22.31
2023-05-20T04:49:42.897Z,22.36
2023-05-20T04:50:45.076Z,22.37
2023-05-20T04:51:47.640Z,22.37
2023-05-20T04:52:49.543Z,22.38
2023-05-20T04:53:51.529Z,22.39
2023-05-20T04:54:53.501Z,22.39
2023-05-20T04:55:57.058Z,22.38
2023-05-20T04:56:59.837Z,22.40
2023-05-20T04:58:02.138Z,22.41
2023-05-20T04:59:04.217Z,22.41
2023-05-20T05:00:07.936Z,22.42
2023-05-20T05:01:09.784Z,22.43
2023-05-20T05:02:11.670Z,22.42
2023-05-20T05:03:13.713Z,22.42
2023-05-20T05:04:15.751Z,22.44
2023-05-20T05:05:17.704Z,22.43
2023-05-20T05:06:19.609Z,22.44
2023-05-20T05:07:22.078Z,22.42
2023-05-20T05:08:24.202Z,22.43
2023-05-20T05:09:27.682Z,22.44
2023-05-20T05:10:30.654Z,22.42
2023-05-20T05:11:32.788Z,22.44
2023-05-20T05:12:34.877Z,22.44
2023-05-20T05:13:38.656Z,22.44
2023-05-20T05:14:41.076Z,22.44
2023-05-20T05:15:43.548Z,22.44
2023-05-20T05:16:46.775Z,22.45
2023-05-20T05:17:50.402Z,22.45
2023-05-20T05:18:52.921Z,22.45
2023-05-20T05:19:54.791Z,22.44
2023-05-20T05:21:04.054Z,22.44
2023-05-20T05:22:06.542Z,22.45
2023-05-20T05:23:08.986Z,22.45
2023-05-20T05:24:11.037Z,22.45
2023-05-20T05:25:13.622Z,22.44
2023-05-20T05:26:15.950Z,22.45
2023-05-20T05:27:19.341Z,22.40
2023-05-20T05:28:21.187Z,22.43
2023-05-20T05:29:23.184Z,22.43
2023-05-20T05:30:25.334Z,22.44
2023-05-20T05:31:27.184Z,22.44
2023-05-20T05:32:29.434Z,22.43
2023-05-20T05:33:31.543Z,22.44
2023-05-20T05:34:33.465Z,22.43
2023-05-20T05:35:35.445Z,22.43
2023-05-20T05:36:40.299Z,22.43
2023-05-20T05:37:42.481Z,22.45
2023-05-20T05:38:44.638Z,22.44
2023-05-20T05:39:46.556Z,22.44
2023-05-20T05:40:48.560Z,22.45
2023-05-20T05:41:51.904Z,22.44
2023-05-20T05:42:54.238Z,22.37
2023-05-20T05:43:56.798Z,22.45
2023-05-20T05:44:58.634Z,22.39
2023-05-20T05:46:01.251Z,22.44
2023-05-20T05:47:03.592Z,22.43
2023-05-20T05:48:05.725Z,22.38
2023-05-20T05:49:07.782Z,22.44
2023-05-20T05:50:10.398Z,22.44
2023-05-20T05:51:13.146Z,22.45
2023-05-20T05:52:15.081Z,22.37
2023-05-20T05:53:17.870Z,22.45
2023-05-20T05:54:23.001Z,22.45
2023-05-20T05:55:25.936Z,22.45
2023-05-20T05:56:29.180Z,22.40
2023-05-20T05:57:32.388Z,22.46
2023-05-20T05:58:34.473Z,22.45
2023-05-20T05:59:37.752Z,22.44
2023-05-20T06:00:39.898Z,22.44
2023-05-20T06:01:41.884Z,22.45
2023-05-20T06:02:45.400Z,22.44
2023-05-20T06:03:51.859Z,22.45
2023-05-20T06:04:54.712Z,22.47
2023-05-20T06:05:56.614Z,22.46
2023-05-20T06:06:59.092Z,22.45
2023-05-20T06:08:01.143Z,22.46
2023-05-20T06:09:03.468Z,22.47
2023-05-20T06:10:06.215Z,22.48
2023-05-20T06:11:09.035Z,22.48
2023-05-20T06:12:13.276Z,22.50
2023-05-20T06:13:16.163Z,22.52
2023-05-20T06:14:18.250Z,22.55
2023-05-20T06:15:20.366Z,22.56
2023-05-20T06:16:22.475Z,22.57
2023-05-20T06:17:24.470Z,22.61
2023-05-20T06:18:26.470Z,22.64
2023-05-20T06:19:31.760Z,22.68
2023-05-20T06:20:33.876Z,22.68
2023-05-20T06:21:36.687Z,22.73
2023-05-20T06:22:38.672Z,22.77
2023-05-20T06:23:41.026Z,22.75
2023-05-20T06:24:45.948Z,22.83
2023-05-20T06:25:48.853Z,22.86
2023-05-20T06:26:51.193Z,22.90
2023-05-20T06:27:53.228Z,22.93
2023-05-20T06:28:56.531Z,22.97
2023-05-20T06:29:58.409Z,23.00
2023-05-20T06:31:00.632Z,23.03
2023-05-20T06:32:06.469Z,23.07
2023-05-20T06:33:09.037Z,23.04
2023-05-20T06:34:11.149Z,23.13
2023-05-20T06:35:13.411Z,23.17
2023-05-20T06:36:15.277Z,23.19
2023-05-20T06:37:17.193Z,23.22
2023-05-20T06:38:20.281Z,23.24
2023-05-20T06:39:22.344Z,23.29
2023-05-20T06:40:24.303Z,23.30
2023-05-20T06:41:26.595Z,23.34
2023-05-20T06:42:28.888Z,23.37
2023-05-20T06:43:38.649Z,23.41
2023-05-20T06:44:45.716Z,23.41
2023-05-20T06:46:07.420Z,23.53
2023-05-20T06:47:18.655Z,23.53
2023-05-20T06:48:22.448Z,23.57
2023-05-20T06:49:24.883Z,23.56
2023-05-20T06:50:28.419Z,23.58
2023-05-20T06:51:30.375Z,23.59
2023-05-20T06:52:32.408Z,23.54
2023-05-20T06:53:34.269Z,23.60
2023-05-20T06:54:40.183Z,23.62
2023-05-20T06:55:43.180Z,23.65
2023-05-20T06:56:45.861Z,23.66
2023-05-20T06:57:49.375Z,23.66
2023-05-20T06:58:52.841Z,23.69
2023-05-20T06:59:54.690Z,23.69
2023-05-20T07:00:56.882Z,23.71
2023-05-20T07:02:00.967Z,23.72
2023-05-20T07:03:03.088Z,23.74
2023-05-20T07:04:05.192Z,23.71
2023-05-20T07:05:08.366Z,23.74
2023-05-20T07:06:11.181Z,23.75
2023-05-20T07:07:13.731Z,23.77
2023-05-20T07:08:16.483Z,23.77
2023-05-20T07:09:18.459Z,23.78
2023-05-20T07:10:21.460Z,23.79
2023-05-20T07:11:24.012Z,23.75
2023-05-20T07:12:25.912Z,23.75
2023-05-20T07:13:27.822Z,23.80
2023-05-20T07:14:29.902Z,23.80
2023-05-20T07:15:31.938Z,23.80
2023-05-20T07:16:35.323Z,23.83
2023-05-20T07:17:37.507Z,23.82
2023-05-20T07:18:40.628Z,23.84
2023-05-20T07:19:42.817Z,23.85
2023-05-20T07:20:45.523Z,23.84
2023-05-20T07:21:58.305Z,23.89
2023-05-20T07:23:10.169Z,23.92
2023-05-20T07:24:20.108Z,23.92
2023-05-20T07:25:21.981Z,23.91
2023-05-20T07:26:24.182Z,23.90
2023-05-20T07:27:26.103Z,23.90
2023-05-20T07:28:28.079Z,23.89
2023-05-20T07:29:30.224Z,23.80
2023-05-20T07:30:32.247Z,23.90
2023-05-20T07:31:54.062Z,23.96
2023-05-20T07:32:56.003Z,23.94
2023-05-20T07:33:58.154Z,23.92
2023-05-20T07:34:59.987Z,23.92
2023-05-20T07:36:02.010Z,23.92
2023-05-20T07:37:04.290Z,23.92
2023-05-20T07:38:06.818Z,23.92
2023-05-20T07:39:13.463Z,23.93
2023-05-20T07:40:17.467Z,23.95
2023-05-20T07:41:19.427Z,23.94
2023-05-20T07:42:21.302Z,23.95
2023-05-20T07:43:26.137Z,23.94
2023-05-20T07:44:28.153Z,23.88
2023-05-20T07:45:30.443Z,23.94
2023-05-20T07:46:32.754Z,23.94
2023-05-20T07:47:34.840Z,23.95
2023-05-20T07:48:37.114Z,23.94
2023-05-20T07:49:39.509Z,23.94
2023-05-20T07:50:42.470Z,23.73
2023-05-20T07:51:44.456Z,23.95
2023-05-20T07:52:56.139Z,23.94
2023-05-20T07:54:01.620Z,23.99
2023-05-20T07:55:03.986Z,23.99
2023-05-20T07:56:06.053Z,23.95
2023-05-20T07:57:07.883Z,23.97
2023-05-20T07:58:09.872Z,23.96
2023-05-20T07:59:11.984Z,23.97
2023-05-20T08:00:20.868Z,23.99
2023-05-20T08:01:22.668Z,23.98
2023-05-20T08:02:24.988Z,23.98
2023-05-20T08:03:27.580Z,23.98
2023-05-20T08:04:41.284Z,24.02
2023-05-20T08:05:43.230Z,24.00
2023-05-20T08:06:45.999Z,24.00
2023-05-20T08:07:54.960Z,24.01
2023-05-20T08:08:59.331Z,24.02
2023-05-20T08:10:06.871Z,24.01
2023-05-20T08:11:09.882Z,24.02
2023-05-20T08:12:13.157Z,23.97
2023-05-20T08:13:15.921Z,24.01
2023-05-20T08:14:17.908Z,24.01
2023-05-20T08:15:23.111Z,24.02
2023-05-20T08:16:25.122Z,24.00
2023-05-20T08:17:27.023Z,24.02
2023-05-20T08:18:29.117Z,24.00
2023-05-20T08:19:31.213Z,24.01
2023-05-20T08:20:33.152Z,24.01
2023-05-20T08:21:35.492Z,23.97
2023-05-20T08:22:37.860Z,24.02
2023-05-20T08:23:40.676Z,24.03
2023-05-20T08:24:42.991Z,24.04
2023-05-20T08:25:48.995Z,24.06
2023-05-20T08:26:52.058Z,24.06
2023-05-20T08:27:55.215Z,24.06
2023-05-20T08:28:57.177Z,24.06
2023-05-20T08:30:00.649Z,24.06
2023-05-20T08:31:03.001Z,24.07
2023-05-20T08:32:06.617Z,24.07
2023-05-20T08:33:10.090Z,24.07
2023-05-20T08:34:11.947Z,24.07
2023-05-20T08:35:14.847Z,24.08
2023-05-20T08:36:19.469Z,24.08
2023-05-20T08:37:21.401Z,24.08
2023-05-20T08:38:23.214Z,24.08
2023-05-20T08:39:26.499Z,24.07
2023-05-20T08:40:29.097Z,24.05
2023-05-20T08:41:31.004Z,24.08
2023-05-20T08:42:33.038Z,24.08
2023-05-20T08:43:35.616Z,24.07
2023-05-20T08:44:37.937Z,24.08
2023-05-20T08:45:39.803Z,24.08
2023-05-20T08:46:47.877Z,24.10
2023-05-20T08:47:50.132Z,24.10
2023-05-20T08:48:52.262Z,24.08
2023-05-20T08:49:54.152Z,24.09
2023-05-20T08:50:57.995Z,24.02
2023-05-20T08:52:01.361Z,24.10
2023-05-20T08:53:03.189Z,24.10
2023-05-20T08:54:05.340Z,24.09
2023-05-20T08:55:09.804Z,24.09
2023-05-20T08:56:13.115Z,24.10
2023-05-20T08:57:15.058Z,24.10
2023-05-20T08:58:19.422Z,24.11
2023-05-20T08:59:22.165Z,24.11
2023-05-20T09:00:28.848Z,24.11
2023-05-20T09:01:30.867Z,24.12
2023-05-20T09:02:32.744Z,24.11
2023-05-20T09:03:34.614Z,24.09
2023-05-20T09:04:36.611Z,24.11
2023-05-20T09:05:38.552Z,24.11
2023-05-20T09:06:45.066Z,24.11
2023-05-20T09:07:47.323Z,24.11
2023-05-20T09:08:51.218Z,24.11
2023-05-20T09:09:53.049Z,24.13
2023-05-20T09:10:54.988Z,24.12
2023-05-20T09:11:56.865Z,24.05
2023-05-20T09:13:04.250Z,24.11
2023-05-20T09:14:06.110Z,24.12
2023-05-20T09:15:08.872Z,24.13
2023-05-20T09:16:11.507Z,24.13
2023-05-20T09:17:13.785Z,24.14
2023-05-20T09:18:16.003Z,24.14
2023-05-20T09:19:18.058Z,24.12
2023-05-20T09:20:22.233Z,24.07
2023-05-20T09:21:28.501Z,24.12
2023-05-20T09:22:30.348Z,24.15
2023-05-20T09:23:32.253Z,24.14
2023-05-20T09:24:34.065Z,24.15
2023-05-20T09:25:37.524Z,24.15
2023-05-20T09:26:40.127Z,24.15
2023-05-20T09:27:42.273Z,24.15
2023-05-20T09:28:44.207Z,24.14
2023-05-20T09:29:51.750Z,24.13
2023-05-20T09:31:01.026Z,24.16
2023-05-20T09:32:03.993Z,24.18
2023-05-20T09:33:07.968Z,24.17
2023-05-20T09:34:10.152Z,24.18
2023-05-20T09:35:16.385Z,24.16
2023-05-20T09:36:21.487Z,24.15
2023-05-20T09:37:25.964Z,24.17
2023-05-20T09:38:28.057Z,24.18
2023-05-20T09:39:34.115Z,24.16
2023-05-20T09:40:40.423Z,24.18
2023-05-20T09:41:52.479Z,24.18
2023-05-20T09:42:57.373Z,24.20
2023-05-20T09:44:00.170Z,24.19
2023-05-20T09:45:04.348Z,24.18
2023-05-20T09:46:08.337Z,24.18
2023-05-20T09:47:10.372Z,24.20
2023-05-20T09:48:13.282Z,24.19
2023-05-20T09:49:16.484Z,24.18
2023-05-20T09:50:21.664Z,24.17
2023-05-20T09:51:24.240Z,24.18
2023-05-20T09:52:27.108Z,24.17
2023-05-20T09:53:29.089Z,24.12
2023-05-20T09:54:32.287Z,24.18
2023-05-20T09:55:35.084Z,24.17
2023-05-20T09:56:38.028Z,24.17
2023-05-20T09:57:39.884Z,24.18
2023-05-20T09:58:44.708Z,24.17
2023-05-20T09:59:47.864Z,24.16
2023-05-20T10:00:49.993Z,24.14
2023-05-20T10:01:51.962Z,24.20
2023-05-20T10:02:54.314Z,24.20
2023-05-20T10:03:57.247Z,24.19
2023-05-20T10:05:04.137Z,24.19
2023-05-20T10:06:43.648Z,24.26
2023-05-20T10:08:23.714Z,24.33
2023-05-20T10:09:55.243Z,24.42
2023-05-20T10:11:46.453Z,24.43
2023-05-20T10:13:09.305Z,24.44
2023-05-20T10:14:26.679Z,24.40
2023-05-20T10:15:46.989Z,24.32
2023-05-20T10:17:00.797Z,24.36
2023-05-20T10:18:22.706Z,24.35
2023-05-20T10:19:32.457Z,24.35
2023-05-20T10:20:48.022Z,24.33
2023-05-20T10:22:10.153Z,24.35
2023-05-20T10:23:22.145Z,24.36
2023-05-20T10:24:34.296Z,24.33
2023-05-20T10:25:36.463Z,24.34
2023-05-20T10:26:41.440Z,24.30
2023-05-20T10:27:48.114Z,24.28
2023-05-20T10:28:49.994Z,24.19
2023-05-20T10:29:55.797Z,24.28
2023-05-20T10:30:59.226Z,24.29
2023-05-20T10:32:02.776Z,24.30
2023-05-20T10:33:07.094Z,24.29
2023-05-20T10:34:15.273Z,24.26
2023-05-20T10:35:22.848Z,24.31
2023-05-20T10:36:28.111Z,24.31
2023-05-20T10:37:40.144Z,24.31
2023-05-20T10:38:52.317Z,24.34
2023-05-20T10:40:08.506Z,24.37
2023-05-20T10:41:14.070Z,24.38
2023-05-20T10:42:16.033Z,24.38
2023-05-20T10:43:31.109Z,24.36
2023-05-20T10:44:46.466Z,24.38
2023-05-20T10:45:58.588Z,24.40
2023-05-20T10:47:21.025Z,24.37
2023-05-20T10:48:26.786Z,24.43
2023-05-20T10:49:34.983Z,24.39
2023-05-20T10:50:38.798Z,24.34
2023-05-20T10:51:42.062Z,24.35
2023-05-20T10:52:44.011Z,24.35
2023-05-20T10:53:47.025Z,24.34
2023-05-20T10:54:59.572Z,24.35
2023-05-20T10:56:01.550Z,24.37
2023-05-20T10:57:09.426Z,24.34
2023-05-20T10:58:11.681Z,24.36
2023-05-20T10:59:13.799Z,24.36
2023-05-20T11:00:16.369Z,24.34
2023-05-20T11:01:19.357Z,24.30
2023-05-20T11:02:28.869Z,24.34
2023-05-20T11:03:32.017Z,24.36
2023-05-20T11:04:34.747Z,24.35
2023-05-20T11:05:39.084Z,24.35
2023-05-20T11:06:56.095Z,24.36
2023-05-20T11:08:13.657Z,24.38
2023-05-20T11:09:26.404Z,24.44
2023-05-20T11:10:28.244Z,24.40
2023-05-20T11:11:30.811Z,24.38
2023-05-20T11:12:33.195Z,24.36
2023-05-20T11:13:35.556Z,24.35
2023-05-20T11:14:37.542Z,24.35
2023-05-20T11:15:39.492Z,24.34
2023-05-20T11:16:42.541Z,24.34
2023-05-20T11:17:57.777Z,24.36
2023-05-20T11:18:59.617Z,24.39
2023-05-20T11:20:01.578Z,24.25
2023-05-20T11:21:03.595Z,24.36
2023-05-20T11:22:08.385Z,24.34
2023-05-20T11:23:14.059Z,24.35
2023-05-20T11:24:27.350Z,24.36
2023-05-20T11:25:29.697Z,24.40
2023-05-20T11:26:32.052Z,24.38
2023-05-20T11:27:34.282Z,24.37
2023-05-20T11:28:36.737Z,24.37
2023-05-20T11:29:40.601Z,24.36
2023-05-20T11:30:46.065Z,24.35
2023-05-20T11:31:53.437Z,24.36
2023-05-20T11:33:01.655Z,24.38
2023-05-20T11:34:04.408Z,24.39
2023-05-20T11:35:07.464Z,24.37
2023-05-20T11:36:26.350Z,24.37
2023-05-20T11:37:29.405Z,24.38
2023-05-20T11:38:31.859Z,24.41
2023-05-20T11:39:34.085Z,24.38
2023-05-20T11:40:49.737Z,24.38
2023-05-20T11:41:52.684Z,24.41
2023-05-20T11:42:59.600Z,24.39
2023-05-20T11:44:01.645Z,24.41
2023-05-20T11:45:03.703Z,24.39
2023-05-20T11:46:05.870Z,24.39
2023-05-20T11:47:08.062Z,24.38
2023-05-20T11:48:11.452Z,24.35
2023-05-20T11:49:14.370Z,24.38
2023-05-20T11:50:20.593Z,24.38
2023-05-20T11:51:28.261Z,24.38
2023-05-20T11:52:30.307Z,24.40
2023-05-20T11:53:32.195Z,24.40
2023-05-20T11:54:36.125Z,24.35
2023-05-20T11:55:49.657Z,24.40
2023-05-20T11:56:51.697Z,24.42
2023-05-20T11:57:54.589Z,24.41
2023-05-20T11:58:58.904Z,24.41
2023-05-20T12:00:00.904Z,24.37
2023-05-20T12:01:13.983Z,24.40
2023-05-20T12:02:23.348Z,24.41
2023-05-20T12:03:26.124Z,24.40
2023-05-20T12:04:28.155Z,24.42
2023-05-20T12:05:30.121Z,24.41
2023-05-20T12:06:32.178Z,24.41
2023-05-20T12:07:33.980Z,24.41
2023-05-20T12:08:36.355Z,24.40
2023-05-20T12:09:38.214Z,24.40
2023-05-20T12:10:40.281Z,24.39
2023-05-20T12:11:42.424Z,24.41
2023-05-20T12:12:45.652Z,24.40
2023-05-20T12:13:47.491Z,24.42
2023-05-20T12:14:49.284Z,24.37
2023-05-20T12:15:51.178Z,24.41
2023-05-20T12:16:53.830Z,24.40
2023-05-20T12:17:56.025Z,24.41
2023-05-20T12:18:57.896Z,24.41
2023-05-20T12:19:59.746Z,24.40
2023-05-20T12:21:01.870Z,24.41
2023-05-20T12:22:03.744Z,24.40
2023-05-20T12:23:05.725Z,24.41
2023-05-20T12:24:08.688Z,24.42
2023-05-20T12:25:15.687Z,24.41
2023-05-20T12:26:17.613Z,24.43
2023-05-20T12:27:19.419Z,24.42
2023-05-20T12:28:21.728Z,24.42
2023-05-20T12:29:24.037Z,24.42
2023-05-20T12:30:26.148Z,24.43
2023-05-20T12:31:28.051Z,24.43
2023-05-20T12:32:30.158Z,24.43
2023-05-20T12:33:32.092Z,24.44
2023-05-20T12:34:33.955Z,24.43
2023-05-20T12:35:41.195Z,24.43
2023-05-20T12:36:43.159Z,24.45
2023-05-20T12:37:45.079Z,24.43
2023-05-20T12:38:47.357Z,24.44
2023-05-20T12:39:49.219Z,24.44
2023-05-20T12:40:51.177Z,24.44
2023-05-20T12:41:52.993Z,24.36
2023-05-20T12:42:54.923Z,24.43
2023-05-20T12:43:56.784Z,24.44
2023-05-20T12:44:58.599Z,24.44
2023-05-20T12:46:00.426Z,24.45
2023-05-20T12:47:02.449Z,24.46
2023-05-20T12:48:06.158Z,24.45
2023-05-20T12:49:08.144Z,24.45
2023-05-20T12:50:10.487Z,24.46
2023-05-20T12:51:12.360Z,24.46
2023-05-20T12:52:21.871Z,24.46
2023-05-20T12:53:24.747Z,24.48
2023-05-20T12:54:28.313Z,24.44
2023-05-20T12:55:30.128Z,24.47
2023-05-20T12:56:31.948Z,24.47
2023-05-20T12:57:34.009Z,24.48
2023-05-20T12:58:35.882Z,24.42
2023-05-20T12:59:38.005Z,24.45
2023-05-20T13:00:40.091Z,24.49
2023-05-20T13:01:42.012Z,24.48
2023-05-20T13:02:44.100Z,24.47
2023-05-20T13:03:46.130Z,24.48
2023-05-20T13:04:48.050Z,24.47
2023-05-20T13:05:50.634Z,24.48
2023-05-20T13:06:52.504Z,24.48
2023-05-20T13:07:54.408Z,24.49
2023-05-20T13:08:56.502Z,24.48
2023-05-20T13:09:59.665Z,24.48
2023-05-20T13:11:01.511Z,24.49
2023-05-20T13:12:03.334Z,24.49
2023-05-20T13:13:05.258Z,24.48
2023-05-20T13:14:07.528Z,24.48
2023-05-20T13:15:09.798Z,24.49
2023-05-20T13:16:12.078Z,24.46
2023-05-20T13:17:14.121Z,24.50
2023-05-20T13:18:16.721Z,24.49
2023-05-20T13:19:18.634Z,24.50
2023-05-20T13:20:20.493Z,24.50
2023-05-20T13:21:22.689Z,24.49
2023-05-20T13:22:24.620Z,24.49
2023-05-20T13:23:26.525Z,24.50
2023-05-20T13:24:28.375Z,24.49
2023-05-20T13:25:31.900Z,24.50
2023-05-20T13:26:33.769Z,24.48
2023-05-20T13:27:35.891Z,24.51
2023-05-20T13:28:37.844Z,24.48
2023-05-20T13:29:39.651Z,24.52
2023-05-20T13:30:41.489Z,24.52
2023-05-20T13:31:43.703Z,24.51
2023-05-20T13:32:46.267Z,24.48
2023-05-20T13:33:48.382Z,24.52
2023-05-20T13:34:50.307Z,24.53
2023-05-20T13:35:52.227Z,24.31
2023-05-20T13:36:54.104Z,24.53
2023-05-20T13:37:55.992Z,24.53
2023-05-20T13:38:57.824Z,24.53